Dobrodošli na spletni strani vremenske postaje Senovo. Vse informacije so informativnega značaja, saj vremenska postaja ni del državne mreže meteoroloških postaj. AKTUALNIH OBVESTIL NI.


Posebna pozornost v zvezi z vremenskimi dogajanji ni potrebna.    Posebna pozornost v zvezi z vremenskimi dogajanji ni potrebna.

Pogled proti Armezu več informacij Pogled proti Armezu


Bohor več informacij Bohor


Radar strel več informacij blitzortung!


Radar padavin več informacij rain snow radar


Obiščite še:

Template documentation
and downloads

And another site



Weather Underground, zgodovina - Tekstovno

Dnevni povzetek za September 26, 2017 Enote:  Metrično    Angleško   Obe
« Predhodni Dan
Naslednji Dan »
Dnevni Tedenski Mesečni Letni Po meri
  Višja: Nižja: Povprečje:
Temperatura: -17.8 °C -10.8 °C -9.7 °C
Točka rosišča: -17.8 °C -11.3 °C -10.8 °C
Vlažnost: Humidity % 72 % 88 %
Hitrost vetra: 0 km/h 0 km/h 4.3 km/h
Sunki vetra: 0 km/h - -
Veter:- - SE
Zračni tlak: 0 hPa 34567.7 hPa -
Padavine: 25.4 mm    
Historical Graphs
 
 
Tabelarni podarki za September 26, 2017
Čas Temperatura Točka rosišča Zračni tlak Veter Hitrost vetra Sunki vetra Vlažnost Intenziteta padavin (urna)
-17.8 °C -17.8 °C 0 hPa Calm     Humidity % 0 mm
00:01 -10.8 °C -11.3 °C 34601.5 hPa Calm     95 % 0 mm
00:06 -10.8 °C -11.3 °C 34601.5 hPa Calm     95 % 0 mm
00:11 -10.8 °C -11.3 °C 34601.5 hPa Calm     95 % 0 mm
00:14 -10.8 °C -11.2 °C 34601.5 hPa Calm     95 % 0 mm
00:19 -10.8 °C -11.2 °C 34601.5 hPa Calm     95 % 0 mm
00:24 -10.8 °C -11.2 °C 34601.5 hPa Calm     95 % 0 mm
00:29 -10.8 °C -11.2 °C 34601.5 hPa Calm     95 % 0 mm
00:30 -10.8 °C -11.2 °C 34601.5 hPa Calm     95 % 0 mm
00:35 -10.8 °C -11.2 °C 34601.5 hPa Calm     95 % 0 mm
00:40 -10.8 °C -11.2 °C 34601.5 hPa Calm     95 % 0 mm
00:45 -10.8 °C -11.2 °C 34601.5 hPa Calm     95 % 0 mm
00:50 -10.8 °C -11.2 °C 34601.5 hPa Calm     95 % 0 mm
00:55 -10.7 °C -11.2 °C 34601.5 hPa Calm     95 % 0 mm
01:00 -10.7 °C -11.2 °C 34601.5 hPa Calm     95 % 0 mm
01:05 -10.7 °C -11.2 °C 34601.5 hPa Calm     95 % 7.62 mm
01:10 -10.7 °C -11.2 °C 34601.5 hPa Calm     95 % 7.62 mm
01:15 -10.7 °C -11.2 °C 34601.5 hPa NW 0.8 km/h 6.4 km/h 95 % 7.62 mm
01:20 -10.8 °C -11.2 °C 34601.5 hPa NW 0.8 km/h 6.4 km/h 95 % 7.62 mm
01:25 -10.8 °C -11.2 °C 34601.5 hPa NNW 1.8 km/h 8 km/h 95 % 7.62 mm
01:30 -10.8 °C -11.2 °C 34601.5 hPa NW 2.6 km/h 8 km/h 95 % 7.62 mm
01:35 -10.7 °C -11.2 °C 34601.5 hPa NW 1.3 km/h 8 km/h 95 % 7.62 mm
01:40 -10.7 °C -11.2 °C 34601.5 hPa Calm     95 % 7.62 mm
01:46 -10.7 °C -11.2 °C 34601.5 hPa WNW 0.3 km/h 3.4 km/h 95 % 7.62 mm
01:51 -10.8 °C -11.1 °C 34601.5 hPa WNW 0.3 km/h 3.4 km/h 96 % 7.62 mm
01:56 -10.8 °C -11.1 °C 34601.5 hPa Calm     96 % 7.62 mm
02:01 -10.8 °C -11.1 °C 34601.5 hPa Calm     96 % 7.62 mm
02:06 -10.8 °C -11.1 °C 34601.5 hPa Calm     96 % 0 mm
02:11 -10.8 °C -11.1 °C 34601.5 hPa Calm     96 % 0 mm
02:16 -10.8 °C -11.1 °C 34601.5 hPa Calm     96 % 0 mm
02:21 -10.8 °C -11.1 °C 34601.5 hPa Calm     96 % 0 mm
02:26 -10.8 °C -11.1 °C 34601.5 hPa Calm     96 % 0 mm
02:36 -10.8 °C -11.1 °C 34601.5 hPa South 0.3 km/h 4.2 km/h 96 % 0 mm
02:41 -10.8 °C -11.1 °C 34601.5 hPa Calm   4.2 km/h 96 % 0 mm
02:46 -10.7 °C -11.1 °C 34601.5 hPa SSE 2.6 km/h 12.2 km/h 96 % 0 mm
02:51 -10.7 °C -11.1 °C 34601.5 hPa South 4.7 km/h 12.2 km/h 96 % 0 mm
02:56 -10.7 °C -11 °C 34601.5 hPa South 2.3 km/h 8.9 km/h 96 % 0 mm
03:01 -10.6 °C -10.9 °C 34601.5 hPa NE 5.1 km/h 19.6 km/h 96 % 0 mm
03:06 -10.5 °C -10.9 °C 34601.5 hPa NE 9.3 km/h 19.6 km/h 95 % 0 mm
03:16 -10.4 °C -10.8 °C 34601.5 hPa ENE 5.1 km/h 19.2 km/h 95 % 0 mm
03:21 -10.4 °C -10.9 °C 34601.5 hPa ENE 5.5 km/h 19.2 km/h 94 % 0 mm
03:26 -10.4 °C -10.9 °C 34567.7 hPa ENE 3.9 km/h 11.1 km/h 94 % 0 mm
03:31 -10.4 °C -10.9 °C 34567.7 hPa ESE 2.3 km/h 8 km/h 94 % 0 mm
03:36 -10.4 °C -10.9 °C 34567.7 hPa East 3.4 km/h 12.7 km/h 94 % 0 mm
03:41 -10.4 °C -11 °C 34601.5 hPa East 3.7 km/h 12.7 km/h 93 % 0 mm
03:46 -10.4 °C -11 °C 34601.5 hPa ENE 5.6 km/h 11.1 km/h 93 % 0 mm
03:51 -10.4 °C -11 °C 34601.5 hPa NE 6.3 km/h 11.1 km/h 93 % 0 mm
03:56 -10.4 °C -11 °C 34601.5 hPa NNE 5.6 km/h 14 km/h 93 % 0 mm
04:01 -10.4 °C -11 °C 34601.5 hPa NE 6 km/h 16.3 km/h 93 % 0 mm
04:11 -10.3 °C -11.1 °C 34601.5 hPa NNE 4.3 km/h 16.3 km/h 92 % 0 mm
04:16 -10.3 °C -11.1 °C 34601.5 hPa NNE 6.9 km/h 16.3 km/h 92 % 0 mm
04:21 -10.3 °C -11.1 °C 34601.5 hPa ENE 6.8 km/h 15.6 km/h 92 % 0 mm
04:26 -10.3 °C -11.1 °C 34601.5 hPa East 5.6 km/h 15.6 km/h 91 % 0 mm
04:31 -10.3 °C -11.1 °C 34601.5 hPa ENE 6.8 km/h 15 km/h 91 % 0 mm
04:36 -10.3 °C -11.2 °C 34601.5 hPa ENE 6.3 km/h 15 km/h 91 % 0 mm
04:41 -10.3 °C -11.1 °C 34567.7 hPa East 3.9 km/h 9.8 km/h 91 % 0 mm
04:46 -10.3 °C -11.2 °C 34567.7 hPa East 3.7 km/h 9.8 km/h 91 % 0 mm
04:51 -10.3 °C -11.2 °C 34567.7 hPa ESE 4.7 km/h 9.8 km/h 91 % 0 mm
04:56 -10.3 °C -11.2 °C 34567.7 hPa ESE 3.9 km/h 9.8 km/h 91 % 0 mm
05:01 -10.3 °C -11.2 °C 34567.7 hPa East 2.6 km/h 8 km/h 91 % 0 mm
05:12 -10.3 °C -11.2 °C 34567.7 hPa ESE 1.8 km/h 9.3 km/h 91 % 0 mm
05:17 -10.3 °C -11.2 °C 34567.7 hPa ENE 2.3 km/h 10.3 km/h 91 % 0 mm
05:22 -10.3 °C -11.2 °C 34567.7 hPa SE 2.9 km/h 10.3 km/h 91 % 0 mm
05:26 -10.3 °C -11.2 °C 34601.5 hPa SSE 2.6 km/h 7.6 km/h 91 % 0 mm
05:31 -10.4 °C -11.2 °C 34601.5 hPa SSE 1.3 km/h 7.6 km/h 91 % 0 mm
05:36 -10.4 °C -11.2 °C 34601.5 hPa South 2.6 km/h 10.3 km/h 91 % 0 mm
05:37 -10.4 °C -11.2 °C 34601.5 hPa South 3.7 km/h 10.3 km/h 91 % 0 mm
05:42 -10.4 °C -11.2 °C 34567.7 hPa South 5.5 km/h 10.3 km/h 91 % 0 mm
05:47 -10.4 °C -11.2 °C 34567.7 hPa South 4.3 km/h 10.3 km/h 91 % 0 mm
05:52 -10.4 °C -11.2 °C 34567.7 hPa SSW 6.4 km/h 11.1 km/h 91 % 0 mm
05:57 -10.4 °C -11.2 °C 34567.7 hPa SW 8.5 km/h 11.1 km/h 91 % 0 mm
06:02 -10.5 °C -11.2 °C 34567.7 hPa SW 7.6 km/h 11.1 km/h 92 % 0 mm
06:07 -10.5 °C -11.2 °C 34567.7 hPa WSW 4.3 km/h 9.8 km/h 92 % 0 mm
06:12 -10.5 °C -11.2 °C 34567.7 hPa SW 0.8 km/h 5.1 km/h 92 % 0 mm
06:17 -10.5 °C -11.2 °C 34567.7 hPa SW 0.5 km/h 9.8 km/h 92 % 0 mm
06:22 -10.6 °C -11.3 °C 34567.7 hPa SW 1.8 km/h 9.8 km/h 92 % 0 mm
06:27 -10.6 °C -11.3 °C 34601.5 hPa SSW 4.2 km/h 9.8 km/h 92 % 0 mm
06:37 -10.6 °C -11.2 °C 34601.5 hPa SW 5 km/h 9.3 km/h 93 % 0 mm
06:42 -10.6 °C -11.2 °C 34601.5 hPa SSW 5.1 km/h 9.3 km/h 93 % 0 mm
06:47 -10.6 °C -11.2 °C 34601.5 hPa South 5.6 km/h 10.3 km/h 93 % 0 mm
06:52 -10.6 °C -11.2 °C 34601.5 hPa SW 8 km/h 15 km/h 93 % 0 mm
06:57 -10.6 °C -11.2 °C 34567.7 hPa SW 9.7 km/h 15 km/h 93 % 0 mm
07:02 -10.6 °C -11.2 °C 34567.7 hPa SW 7.6 km/h 11.1 km/h 93 % 0 mm
07:07 -10.6 °C -11.2 °C 34567.7 hPa SW 4.3 km/h 9.8 km/h 93 % 0 mm
07:12 -10.6 °C -11.2 °C 34601.5 hPa WSW 1.8 km/h 6.4 km/h 94 % 0 mm
07:17 -10.6 °C -11.2 °C 34601.5 hPa NNW 1.3 km/h 5.1 km/h 94 % 0 mm
07:22 -10.6 °C -11.2 °C 34601.5 hPa North 0.8 km/h 5.1 km/h 94 % 0 mm
07:27 -10.6 °C -11.2 °C 34601.5 hPa WNW 0.3 km/h 7.6 km/h 94 % 7.62 mm
07:32 -10.6 °C -11.2 °C 34601.5 hPa WNW 0.3 km/h 7.6 km/h 94 % 12.7 mm
07:37 -10.6 °C -11.2 °C 34601.5 hPa Calm     94 % 12.7 mm
07:42 -10.7 °C -11.1 °C 34601.5 hPa SSW 1.6 km/h 7.6 km/h 95 % 12.7 mm
07:47 -10.7 °C -11.1 °C 34601.5 hPa SSW 3.9 km/h 7.6 km/h 95 % 12.7 mm
07:52 -10.7 °C -11.1 °C 34601.5 hPa SSW 3.4 km/h 8.9 km/h 95 % 12.7 mm
07:57 -10.7 °C -11.1 °C 34601.5 hPa SSW 2.3 km/h 8.9 km/h 95 % 12.7 mm
08:02 -10.7 °C -11.1 °C 34601.5 hPa SSW 4.7 km/h 10.3 km/h 95 % 12.7 mm
08:07 -10.7 °C -11.1 °C 34601.5 hPa SW 7.6 km/h 10.3 km/h 95 % 12.7 mm
08:12 -10.7 °C -11.1 °C 34601.5 hPa SW 7.2 km/h 9.8 km/h 95 % 12.7 mm
08:17 -10.6 °C -11.1 °C 34601.5 hPa SSW 6.8 km/h 15 km/h 95 % 12.7 mm
08:22 -10.6 °C -11 °C 34601.5 hPa SW 6.4 km/h 15 km/h 95 % 12.7 mm
08:27 -10.6 °C -11 °C 34601.5 hPa NNW 3.7 km/h 9.8 km/h 95 % 7.62 mm
08:32 -10.6 °C -11 °C 34601.5 hPa SW 1 km/h 9.3 km/h 95 % 0 mm
08:37 -10.6 °C -11 °C 34601.5 hPa SSW 3.7 km/h 9.3 km/h 95 % 0 mm
08:42 -10.6 °C -11 °C 34601.5 hPa SW 6.4 km/h 11.1 km/h 95 % 0 mm
08:47 -10.4 °C -10.9 °C 34601.5 hPa SW 4.3 km/h 11.1 km/h 95 % 0 mm
08:52 -10.4 °C -10.8 °C 34601.5 hPa WSW 4.3 km/h 15 km/h 95 % 0 mm
08:57 -10.4 °C -10.8 °C 34635.4 hPa WNW 4.7 km/h 15 km/h 95 % 0 mm
09:02 -10.3 °C -10.8 °C 34635.4 hPa SSE 2.6 km/h 10.3 km/h 95 % 7.62 mm
09:07 -10.3 °C -10.8 °C 34635.4 hPa ESE 1.6 km/h 9.8 km/h 95 % 7.62 mm
09:12 -10.3 °C -10.7 °C 34635.4 hPa SW 0.8 km/h 5.6 km/h 95 % 7.62 mm
09:17 -10.3 °C -10.7 °C 34635.4 hPa South 2.1 km/h 8 km/h 95 % 7.62 mm
09:22 -10.3 °C -10.7 °C 34635.4 hPa SSE 2.1 km/h 8 km/h 95 % 7.62 mm
09:27 -10.2 °C -10.7 °C 34635.4 hPa SE 0.8 km/h 8.9 km/h 94 % 7.62 mm
09:32 -10.2 °C -10.7 °C 34635.4 hPa East 3.4 km/h 12.2 km/h 94 % 7.62 mm
09:37 -10.2 °C -10.7 °C 34635.4 hPa East 4.7 km/h 12.7 km/h 94 % 7.62 mm
09:42 -10.2 °C -10.7 °C 34635.4 hPa East 4.7 km/h 12.7 km/h 94 % 7.62 mm
09:47 -10.2 °C -10.7 °C 34635.4 hPa ESE 6.9 km/h 16.3 km/h 94 % 7.62 mm
09:52 -10.2 °C -10.7 °C 34635.4 hPa ESE 6.9 km/h 16.3 km/h 94 % 7.62 mm
09:58 -10.2 °C -10.7 °C 34635.4 hPa ESE 6.4 km/h 12.2 km/h 94 % 7.62 mm
10:03 -10.1 °C -10.7 °C 34635.4 hPa ESE 6.8 km/h 12.7 km/h 94 % 0 mm
10:08 -10.1 °C -10.7 °C 34635.4 hPa ESE 6.4 km/h 14 km/h 93 % 0 mm
10:13 -10.1 °C -10.7 °C 34635.4 hPa ESE 6.8 km/h 14 km/h 93 % 0 mm
10:18 -10.1 °C -10.7 °C 34635.4 hPa ESE 6 km/h 12.2 km/h 93 % 0 mm
10:23 -10.1 °C -10.7 °C 34635.4 hPa East 6.9 km/h 16.9 km/h 93 % 0 mm
10:28 -10 °C -10.6 °C 34635.4 hPa ESE 8.2 km/h 16.9 km/h 93 % 0 mm
10:30 -10 °C -10.6 °C 34635.4 hPa ESE 7.6 km/h 16.9 km/h 93 % 0 mm
10:35 -10 °C -10.6 °C 34635.4 hPa ESE 7.2 km/h 12.7 km/h 93 % 0 mm
10:40 -9.9 °C -10.6 °C 34669.3 hPa ESE 8.2 km/h 12.2 km/h 93 % 0 mm
10:45 -9.9 °C -10.5 °C 34669.3 hPa ESE 8.5 km/h 16.3 km/h 93 % 0 mm
10:50 -9.9 °C -10.5 °C 34669.3 hPa ESE 9.7 km/h 18.7 km/h 93 % 0 mm
10:55 -9.8 °C -10.6 °C 34635.4 hPa ESE 9.7 km/h 18.7 km/h 92 % 0 mm
11:00 -9.8 °C -10.5 °C 34635.4 hPa ESE 9 km/h 16.3 km/h 92 % 0 mm
11:05 -9.7 °C -10.4 °C 34635.4 hPa East 8 km/h 16.9 km/h 92 % 0 mm
11:10 -9.6 °C -10.3 °C 34669.3 hPa ENE 7.7 km/h 16.9 km/h 92 % 0 mm
11:15 -9.4 °C -10.2 °C 34669.3 hPa ENE 8.5 km/h 16.9 km/h 91 % 0 mm
11:20 -9.3 °C -10.2 °C 34669.3 hPa ENE 8.5 km/h 16.3 km/h 91 % 0 mm
11:25 -9.3 °C -10.2 °C 34635.4 hPa East 7.2 km/h 14.5 km/h 90 % 0 mm
11:30 -9.2 °C -10.1 °C 34635.4 hPa ESE 5.5 km/h 12.7 km/h 90 % 0 mm
11:35 -9.2 °C -10.1 °C 34635.4 hPa ESE 6.4 km/h 11.1 km/h 90 % 0 mm
11:40 -9.1 °C -10.1 °C 34635.4 hPa SE 8.9 km/h 15 km/h 89 % 0 mm
11:45 -9.1 °C -10.1 °C 34635.4 hPa ESE 9.3 km/h 15 km/h 89 % 0 mm
11:50 -9 °C -10 °C 34635.4 hPa ESE 10.1 km/h 19.2 km/h 89 % 0 mm
11:55 -8.9 °C -10.1 °C 34669.3 hPa ESE 10.6 km/h 19.2 km/h 88 % 0 mm
12:00 -8.9 °C -10.1 °C 34669.3 hPa ESE 10.1 km/h 18.7 km/h 87 % 0 mm
12:05 -8.8 °C -9.9 °C 34669.3 hPa ESE 10.3 km/h 22 km/h 87 % 0 mm
12:10 -8.7 °C -9.9 °C 34635.4 hPa ESE 10.6 km/h 23 km/h 86 % 0 mm
12:15 -8.6 °C -9.9 °C 34635.4 hPa ESE 9.3 km/h 23 km/h 86 % 0 mm
12:18 -8.4 °C -9.8 °C 34635.4 hPa East 8.5 km/h 20.9 km/h 85 % 0 mm
12:23 -8.3 °C -9.9 °C 34635.4 hPa ENE 8 km/h 20.9 km/h 83 % 0 mm
12:28 -8.2 °C -9.9 °C 34635.4 hPa East 7.7 km/h 20.9 km/h 82 % 0 mm
12:33 -8.2 °C -9.9 °C 34635.4 hPa East 9.3 km/h 22 km/h 82 % 0 mm
12:38 -8.2 °C -10.1 °C 34635.4 hPa East 8 km/h 22 km/h 81 % 0 mm
12:43 -8.2 °C -10.2 °C 34669.3 hPa ENE 3.7 km/h 16.9 km/h 80 % 0 mm
12:48 -8.2 °C -10.2 °C 34669.3 hPa NE 6 km/h 20.9 km/h 80 % 0 mm
12:53 -8.2 °C -10.3 °C 34669.3 hPa ENE 8.5 km/h 22.5 km/h 79 % 0 mm
12:55 -8.2 °C -10.2 °C 34635.4 hPa ENE 8 km/h 22.5 km/h 79 % 0 mm
13:00 -8.2 °C -10.3 °C 34635.4 hPa ESE 9.7 km/h 22.5 km/h 78 % 0 mm
13:05 -8.1 °C -10.3 °C 34635.4 hPa ESE 12.2 km/h 27.7 km/h 78 % 0 mm
13:10 -8.1 °C -10.3 °C 34635.4 hPa ESE 11.4 km/h 27.7 km/h 78 % 0 mm
13:15 -8.2 °C -10.4 °C 34635.4 hPa East 9 km/h 19.2 km/h 77 % 0 mm
13:20 -8.1 °C -10.4 °C 34635.4 hPa East 8.9 km/h 19.2 km/h 77 % 0 mm
13:25 -8 °C -10.4 °C 34635.4 hPa East 10.3 km/h 23.8 km/h 76 % 0 mm
13:30 -7.9 °C -10.3 °C 34635.4 hPa ENE 11.1 km/h 23.8 km/h 76 % 0 mm
13:35 -7.9 °C -10.4 °C 34635.4 hPa ENE 11.4 km/h 20.9 km/h 75 % 0 mm
13:40 -7.9 °C -10.4 °C 34669.3 hPa ENE 11.1 km/h 19.2 km/h 75 % 0 mm
13:50 -7.8 °C -10.4 °C 34669.3 hPa ENE 9.3 km/h 20.9 km/h 74 % 0 mm
13:55 -7.9 °C -10.6 °C 34635.4 hPa ENE 7.7 km/h 15.6 km/h 74 % 0 mm
14:05 -8.2 °C -10.8 °C 34635.4 hPa East 6.9 km/h 19.6 km/h 74 % 0 mm
14:15 -8.4 °C -10.7 °C 34635.4 hPa ENE 5.5 km/h 14 km/h 77 % 0 mm
14:20 -8.4 °C -10.7 °C 34635.4 hPa ENE 6.8 km/h 16.9 km/h 77 % 0 mm
14:25 -8.6 °C -10.8 °C 34635.4 hPa ENE 7.2 km/h 17.4 km/h 77 % 0 mm
14:30 -8.7 °C -10.9 °C 34635.4 hPa NE 8.2 km/h 17.4 km/h 77 % 0 mm
14:35 -8.7 °C -10.9 °C 34635.4 hPa NE 8 km/h 15.6 km/h 78 % 0 mm
14:40 -8.7 °C -10.9 °C 34601.5 hPa NE 4.2 km/h 15.6 km/h 78 % 0 mm
14:42 -8.7 °C -10.9 °C 34601.5 hPa NE 2.6 km/h 8 km/h 78 % 0 mm
14:47 -8.7 °C -10.7 °C 34601.5 hPa ENE 1.3 km/h 7.6 km/h 79 % 0 mm
14:52 -8.6 °C -10.7 °C 34601.5 hPa ENE 4.2 km/h 16.9 km/h 79 % 0 mm
14:57 -8.6 °C -10.5 °C 34601.5 hPa ENE 6.3 km/h 16.9 km/h 80 % 0 mm
15:02 -8.6 °C -10.5 °C 34601.5 hPa East 6.4 km/h 12.7 km/h 80 % 0 mm
15:07 -8.6 °C -10.5 °C 34601.5 hPa East 6.4 km/h 12.7 km/h 80 % 0 mm
15:17 -8.3 °C -10.3 °C 34635.4 hPa East 9.3 km/h 22 km/h 79 % 0 mm
15:27 -8 °C -10.2 °C 34635.4 hPa ENE 9 km/h 24.3 km/h 78 % 0 mm
15:32 -7.9 °C -10.2 °C 34635.4 hPa ENE 10.9 km/h 24.3 km/h 77 % 0 mm
15:37 -7.8 °C -10.2 °C 34635.4 hPa ENE 11.6 km/h 23 km/h 76 % 0 mm
15:42 -7.8 °C -10.3 °C 34601.5 hPa ENE 10.9 km/h 23 km/h 75 % 0 mm
15:47 -7.8 °C -10.3 °C 34601.5 hPa East 10.1 km/h 20.9 km/h 75 % 0 mm
15:52 -7.7 °C -10.2 °C 34601.5 hPa ESE 10.9 km/h 23 km/h 75 % 0 mm
15:57 -7.7 °C -10.4 °C 34635.4 hPa East 11.6 km/h 23 km/h 73 % 0 mm
16:02 -7.8 °C -10.6 °C 34635.4 hPa East 11.4 km/h 25.4 km/h 72 % 0 mm
16:07 -7.9 °C -10.8 °C 34635.4 hPa East 11.6 km/h 25.4 km/h 72 % 0 mm
16:12 -7.9 °C -10.7 °C 34601.5 hPa ESE 11.9 km/h 26.2 km/h 73 % 0 mm
16:17 -8 °C -10.7 °C 34601.5 hPa East 11.4 km/h 26.2 km/h 73 % 0 mm
16:22 -8.1 °C -10.8 °C 34601.5 hPa ENE 9.3 km/h 20.3 km/h 73 % 0 mm
16:27 -8.1 °C -10.8 °C 34635.4 hPa ENE 9.8 km/h 20.3 km/h 73 % 0 mm
16:32 -8.2 °C -10.8 °C 34635.4 hPa ENE 9.7 km/h 16.3 km/h 74 % 0 mm
16:37 -8.2 °C -10.8 °C 34635.4 hPa ENE 9.3 km/h 19.2 km/h 74 % 0 mm
16:42 -8.3 °C -10.9 °C 34635.4 hPa ENE 7.7 km/h 19.2 km/h 74 % 0 mm
16:52 -8.4 °C -11.1 °C 34635.4 hPa NE 5.1 km/h 10.3 km/h 74 % 0 mm
16:57 -8.4 °C -10.9 °C 34635.4 hPa ENE 5.1 km/h 15 km/h 75 % 0 mm
17:02 -8.4 °C -10.9 °C 34635.4 hPa ENE 5.6 km/h 15 km/h 75 % 0 mm
17:07 -8.4 °C -10.8 °C 34635.4 hPa East 6 km/h 15 km/h 76 % 0 mm
17:12 -8.4 °C -10.7 °C 34635.4 hPa ENE 5.1 km/h 15 km/h 76 % 0 mm
17:22 -8.3 °C -10.7 °C 34635.4 hPa East 6.9 km/h 12.7 km/h 76 % 0 mm
17:27 -8.3 °C -10.6 °C 34601.5 hPa East 5.6 km/h 11.1 km/h 77 % 0 mm
17:28 -8.3 °C -10.6 °C 34601.5 hPa East 6 km/h 11.1 km/h 77 % 0 mm
17:33 -8.3 °C -10.6 °C 34601.5 hPa East 2.9 km/h 11.1 km/h 77 % 0 mm
17:38 -8.3 °C -10.6 °C 34601.5 hPa ESE 1.6 km/h 9.8 km/h 77 % 0 mm
17:43 -8.3 °C -10.6 °C 34635.4 hPa ESE 4.7 km/h 12.7 km/h 77 % 0 mm
17:48 -8.4 °C -10.5 °C 34635.4 hPa ESE 6.3 km/h 12.7 km/h 78 % 0 mm
17:53 -8.4 °C -10.6 °C 34635.4 hPa East 6.8 km/h 15.6 km/h 78 % 0 mm
17:58 -8.6 °C -10.7 °C 34635.4 hPa East 6.9 km/h 15.6 km/h 78 % 0 mm
18:03 -8.6 °C -10.7 °C 34635.4 hPa ESE 7.2 km/h 12.7 km/h 78 % 0 mm
18:08 -8.7 °C -10.7 °C 34635.4 hPa East 6 km/h 12.7 km/h 79 % 0 mm
18:13 -8.7 °C -10.7 °C 34635.4 hPa ESE 4.2 km/h 10.3 km/h 79 % 0 mm
18:18 -8.8 °C -10.8 °C 34635.4 hPa ESE 3.9 km/h 10.3 km/h 79 % 0 mm
18:23 -8.8 °C -10.7 °C 34635.4 hPa East 3.7 km/h 10.3 km/h 80 % 0 mm
18:28 -8.8 °C -10.7 °C 34635.4 hPa East 2.6 km/h 10.3 km/h 80 % 0 mm
18:33 -8.9 °C -10.8 °C 34635.4 hPa East 1.3 km/h 8.9 km/h 80 % 0 mm
18:38 -8.9 °C -10.7 °C 34635.4 hPa ESE 3.7 km/h 8.9 km/h 81 % 0 mm
18:43 -9 °C -10.8 °C 34669.3 hPa SE 6 km/h 9.8 km/h 81 % 0 mm
18:48 -9 °C -10.8 °C 34669.3 hPa SE 5.6 km/h 9.8 km/h 81 % 0 mm
18:53 -9 °C -10.8 °C 34669.3 hPa South 4.7 km/h 9.8 km/h 81 % 0 mm
18:58 -9 °C -10.8 °C 34669.3 hPa SSE 5.1 km/h 18.7 km/h 81 % 0 mm
19:03 -9.1 °C -10.9 °C 34669.3 hPa SE 6.8 km/h 18.7 km/h 81 % 0 mm
19:08 -9.1 °C -10.9 °C 34669.3 hPa ESE 4.7 km/h 11.1 km/h 81 % 0 mm
19:13 -9.1 °C -10.9 °C 34669.3 hPa South 3.9 km/h 11.1 km/h 81 % 0 mm
19:18 -9.1 °C -10.9 °C 34669.3 hPa SSW 3.4 km/h 11.1 km/h 81 % 0 mm
19:23 -9.2 °C -10.9 °C 34669.3 hPa SW 1.8 km/h 6.4 km/h 82 % 0 mm
19:28 -9.3 °C -11 °C 34669.3 hPa SW 2.1 km/h 6.4 km/h 82 % 0 mm
19:33 -9.3 °C -10.9 °C 34669.3 hPa SW 2.1 km/h 5.6 km/h 83 % 0 mm
19:39 -9.4 °C -11.1 °C 34669.3 hPa SW 4.3 km/h 9.3 km/h 83 % 0 mm
19:44 -9.6 °C -11.1 °C 34669.3 hPa WSW 5 km/h 9.3 km/h 84 % 0 mm
19:49 -9.7 °C -11.2 °C 34669.3 hPa WNW 2.1 km/h 8.9 km/h 84 % 0 mm
19:54 -9.7 °C -11.1 °C 34669.3 hPa WSW 1.6 km/h 8 km/h 85 % 0 mm
19:59 -9.8 °C -11.2 °C 34669.3 hPa WNW 3.1 km/h 8 km/h 85 % 0 mm
20:04 -9.8 °C -11.1 °C 34669.3 hPa North 1.8 km/h 7.6 km/h 86 % 0 mm
20:14 -9.8 °C -11 °C 34669.3 hPa Calm     87 % 0 mm
20:19 -9.8 °C -10.9 °C 34669.3 hPa South 1.6 km/h 10.3 km/h 88 % 0 mm
20:24 -9.8 °C -10.9 °C 34669.3 hPa SSW 3.7 km/h 10.3 km/h 88 % 0 mm
20:34 -9.8 °C -10.9 °C 34669.3 hPa WSW 0.5 km/h 5.1 km/h 88 % 0 mm
20:39 -9.8 °C -10.9 °C 34669.3 hPa West 1.6 km/h 6.9 km/h 88 % 0 mm
20:44 -9.8 °C -10.8 °C 34635.4 hPa WNW 1 km/h 6.9 km/h 89 % 0 mm
20:49 -9.9 °C -10.9 °C 34635.4 hPa NW 0.8 km/h 6.4 km/h 89 % 0 mm
20:54 -9.9 °C -10.9 °C 34669.3 hPa NW 0.8 km/h 6.4 km/h 89 % 0 mm
20:59 -9.9 °C -10.8 °C 34669.3 hPa WNW 0.3 km/h 6.4 km/h 90 % 0 mm
21:04 -9.9 °C -10.8 °C 34669.3 hPa West 1 km/h 6.4 km/h 90 % 0 mm
21:09 -9.9 °C -10.8 °C 34669.3 hPa West 1.3 km/h 6.4 km/h 90 % 7.62 mm
21:14 -9.9 °C -10.7 °C 34669.3 hPa West 0.3 km/h 4.2 km/h 91 % 7.62 mm
21:19 -9.9 °C -10.7 °C 34669.3 hPa SSW 0.3 km/h 4.2 km/h 91 % 7.62 mm
21:24 -10 °C -10.8 °C 34669.3 hPa SSW 0.3 km/h 4.2 km/h 91 % 7.62 mm
21:29 -10 °C -10.8 °C 34669.3 hPa Calm     91 % 7.62 mm
21:34 -10 °C -10.7 °C 34669.3 hPa SSE 1 km/h 6.4 km/h 92 % 7.62 mm
21:39 -10 °C -10.7 °C 34669.3 hPa SE 1.8 km/h 6.9 km/h 92 % 7.62 mm
21:44 -10 °C -10.7 °C 34669.3 hPa SE 0.8 km/h 6.9 km/h 92 % 7.62 mm
21:49 -10 °C -10.7 °C 34669.3 hPa Calm     92 % 7.62 mm
21:54 -10 °C -10.7 °C 34669.3 hPa Calm   3.4 km/h 92 % 7.62 mm
21:59 -10 °C -10.6 °C 34669.3 hPa SSE 0.3 km/h 3.4 km/h 93 % 7.62 mm
22:04 -10 °C -10.6 °C 34669.3 hPa South 2.6 km/h 6.4 km/h 93 % 7.62 mm
22:09 -10 °C -10.6 °C 34669.3 hPa SSW 1.8 km/h 6.4 km/h 93 % 7.62 mm
22:14 -10 °C -10.6 °C 34669.3 hPa Calm     93 % 7.62 mm
22:19 -10.1 °C -10.7 °C 34669.3 hPa SSE 0.5 km/h 12.7 km/h 93 % 7.62 mm
22:24 -10.1 °C -10.7 °C 34669.3 hPa SSW 4.2 km/h 15 km/h 93 % 0 mm
22:29 -10.1 °C -10.6 °C 34669.3 hPa WSW 7.2 km/h 15 km/h 94 % 0 mm
22:34 -10.1 °C -10.6 °C 34669.3 hPa WNW 5.6 km/h 12.2 km/h 94 % 0 mm
22:39 -10.1 °C -10.6 °C 34669.3 hPa NNW 2.6 km/h 10.3 km/h 94 % 0 mm
22:44 -10.1 °C -10.6 °C 34669.3 hPa NNW 0.5 km/h 5.6 km/h 94 % 0 mm
22:49 -10.1 °C -10.6 °C 34669.3 hPa Calm     94 % 0 mm
22:54 -10.1 °C -10.7 °C 34669.3 hPa Calm   4.2 km/h 94 % 0 mm
22:59 -10.1 °C -10.7 °C 34669.3 hPa Calm   4.2 km/h 94 % 0 mm
23:04 -10.1 °C -10.7 °C 34669.3 hPa Calm     94 % 0 mm
23:09 -10.1 °C -10.7 °C 34669.3 hPa Calm     94 % 0 mm
23:14 -10.2 °C -10.7 °C 34669.3 hPa Calm     94 % 0 mm
23:19 -10.2 °C -10.7 °C 34669.3 hPa Calm     94 % 0 mm
23:24 -10.2 °C -10.7 °C 34669.3 hPa Calm     94 % 0 mm
23:29 -10.3 °C -10.8 °C 34669.3 hPa Calm     94 % 0 mm
23:34 -10.3 °C -10.8 °C 34669.3 hPa Calm     94 % 0 mm
23:39 -10.3 °C -10.9 °C 34669.3 hPa Calm     94 % 0 mm
23:44 -10.4 °C -10.9 °C 34669.3 hPa Calm   3.4 km/h 94 % 0 mm
23:49 -10.4 °C -10.9 °C 34669.3 hPa Calm   3.4 km/h 94 % 0 mm
23:54 -10.4 °C -10.9 °C 34669.3 hPa Calm   2.9 km/h 94 % 0 mm
23:59 -10.4 °C -10.9 °C 34669.3 hPa Calm     94 % 0 mm
Vremenska postaja Senovo
Podatki zbrani iz Weather Underground - 2.75 mb

Script developed by  Jim McMurry - jmcmurry@mwt.net Adapted for the template by  Wim van der Kuil - Leuven-Template.eu

Vremenski podatki so objavljeni na:

European Weather Network

WeatherCloud

Weather Underground

AWEKAS

HAMweather, WeatherForYou, PWS Weather

MapView

Geostik

Slovenia weather network

Oprema, ki se uporablja:

Vremenski program
Cumulus

Vremenski server
Asus

Cumulus

Asus